Sant Antoni de Portmany, Spain
Current Conditions -  °F | °C
As of 12:00 AM on Tuesday 25 Nov 2014 (Local Time) from LEIB Reporting Station
Broken Clouds Broken Clouds  
Wind Chill: 61°   Ceiling: 400
Heat Index: 61°   Visibility: 4mi
Dew Point: 61°   Wind: 0mph
Humidity: 100%   Direction: NA
Pressure: 30.03"   Gusts: NA
Location:  38.98°N, 1.3°E
Report Text: LEIB 242300Z 00000KT 7000 BKN004 16/16 Q1017 TEMPO 3000 BR
Loading
Personal Weather Stations






























Interactive Weather Map New forecast layout! Learn more

10-Day Weather Forecast

Advertisements
Track Severe Weather on mobile